Time;durP1;ratioP1;P1;durP2;ratioP2;P2;SDS_P1;SDS_P2;PMS_P1;PMS_P2;Temp;Humidity;BMP_temperature;BMP_pressure;BME280_temperature;BME280_humidity;BME280_pressure;Samples;Min_cycle;Max_cycle;Signal;HPM_P1;HPM_P2
2022/07/25 00:00:06;;;;;;;2.13;1.77;;;21.40;99.90;;;;;;5136587;27;20402;-82
2022/07/25 00:02:32;;;;;;;2.72;1.83;;;21.50;99.90;;;;;;5154954;27;20457;-82
2022/07/25 00:04:58;;;;;;;3.35;2.40;;;21.50;99.90;;;;;;5134860;27;20121;-83
2022/07/25 00:07:24;;;;;;;5.90;2.17;;;21.50;99.90;;;;;;5155068;27;20053;-82
2022/07/25 00:09:49;;;;;;;3.67;2.40;;;21.50;99.90;;;;;;5134609;27;20039;-82
2022/07/25 00:12:15;;;;;;;7.97;2.30;;;21.60;99.90;;;;;;5154959;27;20457;-82
2022/07/25 00:14:41;;;;;;;2.95;2.10;;;21.60;99.90;;;;;;5154294;27;20047;-82
2022/07/25 00:17:07;;;;;;;2.63;2.13;;;21.60;99.90;;;;;;5154013;27;20046;-82
2022/07/25 00:19:32;;;;;;;3.80;2.20;;;21.60;99.90;;;;;;5137512;27;20042;-82
2022/07/25 00:21:58;;;;;;;3.53;2.38;;;21.60;99.90;;;;;;5123509;27;20047;-82
2022/07/25 00:24:24;;;;;;;2.97;2.15;;;21.60;99.90;;;;;;5157472;27;20038;-82
2022/07/25 00:26:49;;;;;;;3.85;2.88;;;21.60;99.90;;;;;;5158810;27;20482;-82
2022/07/25 00:29:15;;;;;;;4.90;2.38;;;21.60;99.90;;;;;;5157712;27;20038;-82
2022/07/25 00:31:41;;;;;;;4.05;2.20;;;21.60;99.90;;;;;;5139695;27;20055;-82
2022/07/25 00:34:07;;;;;;;3.95;2.63;;;21.60;99.90;;;;;;5139394;27;20095;-82
2022/07/25 00:36:32;;;;;;;4.55;2.38;;;21.60;99.90;;;;;;5140321;27;20047;-82
2022/07/25 00:38:58;;;;;;;2.40;2.20;;;21.60;99.90;;;;;;5157027;27;20102;-82
2022/07/25 00:41:24;;;;;;;4.07;2.33;;;21.50;99.90;;;;;;5140133;27;20387;-82
2022/07/25 00:43:49;;;;;;;3.58;2.20;;;21.50;99.90;;;;;;5134196;27;20057;-82
2022/07/25 00:46:16;;;;;;;4.32;2.25;;;21.60;99.90;;;;;;5137233;27;20148;-82
2022/07/25 00:48:43;;;;;;;5.32;2.25;;;21.50;99.90;;;;;;5147275;27;20043;-82
2022/07/25 00:51:10;;;;;;;5.10;2.45;;;21.50;99.90;;;;;;5158617;27;20545;-82
2022/07/25 00:53:37;;;;;;;3.65;2.10;;;21.50;99.90;;;;;;5156948;27;20034;-82
2022/07/25 00:56:04;;;;;;;5.55;3.15;;;21.40;99.90;;;;;;5139818;27;20053;-82
2022/07/25 00:58:30;;;;;;;2.58;2.33;;;21.40;99.90;;;;;;5139008;27;20039;-82
2022/07/25 01:00:57;;;;;;;3.10;2.80;;;21.40;99.90;;;;;;5157708;27;20386;-82
2022/07/25 01:03:23;;;;;;;4.65;2.95;;;21.30;99.90;;;;;;5134281;27;20132;-82
2022/07/25 01:05:49;;;;;;;6.55;2.70;;;21.30;99.90;;;;;;5137475;27;20526;-82
2022/07/25 01:08:18;;;;;;;7.50;2.40;;;21.30;99.90;;;;;;5140157;27;20140;-82
2022/07/25 01:10:44;;;;;;;4.13;2.50;;;21.20;99.90;;;;;;5139583;27;20505;-82
2022/07/25 01:13:11;;;;;;;2.90;2.55;;;21.10;99.90;;;;;;5138176;27;20107;-82
2022/07/25 01:15:37;;;;;;;3.67;2.72;;;21.10;99.90;;;;;;5151471;27;20047;-82
2022/07/25 01:18:03;;;;;;;2.72;2.08;;;21.00;99.90;;;;;;5154449;27;20047;-82
2022/07/25 01:20:31;;;;;;;6.43;2.53;;;21.00;99.90;;;;;;5152218;27;20074;-82
2022/07/25 01:22:58;;;;;;;3.58;2.47;;;20.90;99.90;;;;;;5118775;27;20083;-82
2022/07/25 01:25:25;;;;;;;2.38;2.10;;;20.80;99.90;;;;;;5140210;27;20102;-82
2022/07/25 01:27:52;;;;;;;3.08;2.75;;;20.80;99.90;;;;;;5157156;27;20042;-82
2022/07/25 01:30:19;;;;;;;4.47;2.83;;;20.80;99.90;;;;;;5155224;27;20074;-82
2022/07/25 01:32:46;;;;;;;5.75;3.22;;;20.80;99.90;;;;;;5157832;27;20500;-82
2022/07/25 01:35:13;;;;;;;5.32;3.13;;;20.70;99.90;;;;;;5156140;27;20043;-82
2022/07/25 01:37:39;;;;;;;4.78;3.20;;;20.70;99.90;;;;;;5139460;27;20394;-82
2022/07/25 01:40:06;;;;;;;6.15;3.38;;;20.80;99.90;;;;;;5139130;27;20507;-82
2022/07/25 01:42:32;;;;;;;4.93;3.22;;;20.80;99.90;;;;;;5137220;27;20493;-82
2022/07/25 01:44:59;;;;;;;4.18;3.78;;;20.80;99.90;;;;;;5157452;27;20091;-82
2022/07/25 01:47:24;;;;;;;5.40;3.28;;;20.70;99.90;;;;;;5137822;27;20039;-82
2022/07/25 01:49:50;;;;;;;4.32;3.55;;;20.70;99.90;;;;;;5156880;27;20435;-81
2022/07/25 01:52:16;;;;;;;5.57;3.35;;;20.70;99.90;;;;;;5138004;27;20053;-81
2022/07/25 01:54:42;;;;;;;3.20;2.85;;;20.70;99.90;;;;;;5156463;27;20046;-82
2022/07/25 01:57:08;;;;;;;5.82;3.53;;;20.70;99.90;;;;;;5156654;27;20046;-82
2022/07/25 01:59:38;;;;;;;3.95;2.97;;;20.70;99.90;;;;;;5156372;27;20039;-82
2022/07/25 02:02:06;;;;;;;4.10;2.97;;;20.70;99.90;;;;;;5136646;27;20058;-82
2022/07/25 02:04:33;;;;;;;3.60;3.05;;;20.70;99.90;;;;;;5136360;27;20382;-82
2022/07/25 02:06:58;;;;;;;3.63;3.05;;;20.70;99.90;;;;;;5138051;27;20047;-82
2022/07/25 02:09:24;;;;;;;4.40;3.25;;;20.60;99.90;;;;;;5156420;27;20046;-82
2022/07/25 02:11:50;;;;;;;5.30;2.80;;;20.60;99.90;;;;;;5156219;27;20065;-82
2022/07/25 02:14:16;;;;;;;6.10;2.83;;;20.60;99.90;;;;;;5156994;27;20078;-82
2022/07/25 02:16:42;;;;;;;3.92;3.33;;;20.60;99.90;;;;;;5154475;27;20066;-82
2022/07/25 02:19:07;;;;;;;3.53;3.22;;;20.50;99.90;;;;;;5157228;27;20055;-82
2022/07/25 02:21:33;;;;;;;5.18;3.03;;;20.50;99.90;;;;;;5137278;27;20131;-82
2022/07/25 02:23:59;;;;;;;4.63;3.15;;;20.50;99.90;;;;;;5137276;27;20125;-82
2022/07/25 02:26:25;;;;;;;5.10;2.95;;;20.40;99.90;;;;;;5124270;27;20047;-82
2022/07/25 02:28:50;;;;;;;3.92;2.92;;;20.40;99.90;;;;;;5135983;27;20035;-82
2022/07/25 02:31:16;;;;;;;4.45;2.95;;;20.40;99.90;;;;;;5146033;27;20050;-82
2022/07/25 02:33:42;;;;;;;3.75;3.08;;;20.40;99.90;;;;;;5156662;27;20119;-82
2022/07/25 02:36:09;;;;;;;3.88;2.92;;;20.40;99.90;;;;;;5155807;27;20046;-82
2022/07/25 02:38:36;;;;;;;3.95;3.08;;;20.40;99.90;;;;;;5137140;27;20050;-82
2022/07/25 02:41:02;;;;;;;5.70;2.88;;;20.40;99.90;;;;;;5155319;27;20035;-82
2022/07/25 02:43:28;;;;;;;3.88;3.05;;;20.40;99.90;;;;;;5156140;27;20092;-82
2022/07/25 02:45:54;;;;;;;3.45;3.08;;;20.30;99.90;;;;;;5154688;27;20477;-82
2022/07/25 02:48:19;;;;;;;5.15;2.70;;;20.30;99.90;;;;;;5137700;27;20069;-82
2022/07/25 02:50:45;;;;;;;3.30;3.00;;;20.20;99.90;;;;;;5154880;27;20042;-82
2022/07/25 02:53:11;;;;;;;3.42;2.85;;;20.20;99.90;;;;;;5136894;27;20054;-82
2022/07/25 02:55:37;;;;;;;3.13;2.92;;;20.10;99.90;;;;;;5155314;27;20121;-82
2022/07/25 02:58:02;;;;;;;3.42;3.13;;;20.20;99.90;;;;;;5137813;27;20041;-82
2022/07/25 03:00:29;;;;;;;5.60;2.90;;;20.10;99.90;;;;;;5153705;27;20057;-82
2022/07/25 03:02:55;;;;;;;4.15;3.55;;;20.10;99.90;;;;;;5120291;27;20072;-82
2022/07/25 03:05:21;;;;;;;4.47;3.60;;;20.10;99.90;;;;;;5155212;27;20038;-82
2022/07/25 03:07:47;;;;;;;3.10;2.80;;;20.10;99.90;;;;;;5155103;27;20110;-82
2022/07/25 03:10:13;;;;;;;3.85;3.05;;;20.10;99.90;;;;;;5154883;27;20038;-82
2022/07/25 03:12:40;;;;;;;3.58;3.08;;;20.10;99.90;;;;;;5136564;27;20042;-82
2022/07/25 03:15:07;;;;;;;5.75;3.50;;;20.00;99.90;;;;;;5136514;27;20099;-82
2022/07/25 03:17:33;;;;;;;4.82;3.30;;;20.00;99.90;;;;;;5155539;27;20065;-82
2022/07/25 03:19:58;;;;;;;4.43;3.40;;;20.00;99.90;;;;;;5154065;27;20113;-82
2022/07/25 03:22:25;;;;;;;7.05;3.88;;;20.00;99.90;;;;;;5155675;27;20424;-82
2022/07/25 03:24:52;;;;;;;4.30;3.90;;;20.00;99.90;;;;;;5144717;27;20100;-82
2022/07/25 03:27:18;;;;;;;4.35;3.85;;;20.00;99.90;;;;;;5115670;27;20050;-81
2022/07/25 03:29:44;;;;;;;4.82;3.97;;;20.00;99.90;;;;;;5143069;27;20035;-83
2022/07/25 03:32:10;;;;;;;5.82;3.75;;;20.00;99.90;;;;;;5136847;27;20049;-82
2022/07/25 03:34:36;;;;;;;4.15;3.58;;;20.00;99.90;;;;;;5135358;27;20053;-82
2022/07/25 03:37:01;;;;;;;6.32;4.10;;;19.90;99.90;;;;;;5155552;27;20460;-82
2022/07/25 03:39:28;;;;;;;6.90;4.20;;;19.90;99.90;;;;;;5136284;27;20064;-82
2022/07/25 03:41:54;;;;;;;6.63;4.45;;;19.90;99.90;;;;;;5154429;27;20112;-81
2022/07/25 03:44:21;;;;;;;5.70;4.80;;;19.90;99.90;;;;;;5154693;27;20427;-82
2022/07/25 03:46:47;;;;;;;5.20;4.70;;;19.90;99.90;;;;;;5155250;27;20056;-81
2022/07/25 03:49:12;;;;;;;7.43;4.78;;;19.90;99.90;;;;;;5135044;27;20125;-82
2022/07/25 03:51:38;;;;;;;5.90;4.45;;;19.90;99.90;;;;;;5155328;27;20082;-82
2022/07/25 03:54:05;;;;;;;8.65;4.68;;;20.00;99.90;;;;;;5153424;27;20035;-82
2022/07/25 03:56:35;;;;;;;5.75;4.43;;;20.00;99.90;;;;;;5115356;28;20055;-82
2022/07/25 03:59:01;;;;;;;6.45;4.88;;;20.00;99.90;;;;;;5135302;28;20099;-82
2022/07/25 04:01:26;;;;;;;8.05;4.90;;;20.00;99.90;;;;;;5153974;27;20434;-82
2022/07/25 04:03:52;;;;;;;7.38;4.80;;;20.00;99.90;;;;;;5136022;27;20125;-82
2022/07/25 04:06:18;;;;;;;6.88;5.30;;;20.00;99.90;;;;;;5153825;27;20535;-82
2022/07/25 04:08:44;;;;;;;5.68;5.00;;;20.10;99.90;;;;;;5154283;27;20163;-82
2022/07/25 04:11:10;;;;;;;9.23;4.70;;;20.10;99.90;;;;;;5153497;27;20039;-82
2022/07/25 04:13:36;;;;;;;8.68;5.20;;;20.10;99.90;;;;;;5136817;27;20055;-82
2022/07/25 04:16:02;;;;;;;7.45;5.25;;;20.10;99.90;;;;;;5153031;27;20053;-82
2022/07/25 04:18:28;;;;;;;7.45;5.30;;;20.20;99.90;;;;;;5154867;27;20047;-82
2022/07/25 04:20:53;;;;;;;6.18;5.57;;;20.20;99.90;;;;;;5123227;28;20047;-82
2022/07/25 04:23:19;;;;;;;8.90;5.35;;;20.20;99.90;;;;;;5148584;27;20416;-82
2022/07/25 04:25:45;;;;;;;6.55;5.13;;;20.20;99.90;;;;;;5153911;27;20043;-82
2022/07/25 04:28:11;;;;;;;6.22;5.03;;;20.20;99.90;;;;;;5136544;27;20054;-82
2022/07/25 04:30:37;;;;;;;7.22;5.38;;;20.20;99.90;;;;;;5153410;27;20457;-82
2022/07/25 04:33:03;;;;;;;6.60;5.28;;;20.20;99.90;;;;;;5154850;27;20046;-82
2022/07/25 04:35:29;;;;;;;7.82;5.38;;;20.20;99.90;;;;;;5135343;27;20038;-82
2022/07/25 04:37:54;;;;;;;9.77;6.45;;;20.30;99.90;;;;;;5154229;27;20097;-82
2022/07/25 04:40:20;;;;;;;10.65;7.13;;;20.30;99.90;;;;;;5153943;27;20041;-82
2022/07/25 04:42:46;;;;;;;7.88;6.28;;;20.30;99.90;;;;;;5154837;27;20043;-82
2022/07/25 04:45:12;;;;;;;8.90;6.38;;;20.30;99.90;;;;;;5153173;27;20027;-82
2022/07/25 04:47:37;;;;;;;6.13;5.53;;;20.30;99.90;;;;;;5136122;27;20039;-82
2022/07/25 04:50:03;;;;;;;7.38;5.90;;;20.40;99.90;;;;;;5153866;27;20054;-82
2022/07/25 04:52:29;;;;;;;6.97;6.22;;;20.40;99.90;;;;;;5152415;27;20489;-82
2022/07/25 04:54:55;;;;;;;7.80;7.10;;;20.40;99.90;;;;;;5134519;27;20099;-82
2022/07/25 04:57:21;;;;;;;9.30;6.22;;;20.40;99.90;;;;;;5153870;27;20049;-82
2022/07/25 04:59:46;;;;;;;8.52;6.05;;;20.40;99.90;;;;;;5152411;27;20035;-82
2022/07/25 05:02:12;;;;;;;10.52;5.82;;;20.50;99.90;;;;;;5154580;27;20042;-82
2022/07/25 05:04:38;;;;;;;9.15;6.18;;;20.50;99.90;;;;;;5153640;27;20039;-82
2022/07/25 05:07:03;;;;;;;9.23;6.05;;;20.50;99.90;;;;;;5157629;27;20042;-82
2022/07/25 05:09:29;;;;;;;8.82;6.38;;;20.50;99.90;;;;;;5152994;27;20504;-82
2022/07/25 05:11:55;;;;;;;10.23;6.47;;;20.50;99.90;;;;;;5137620;27;20045;-82
2022/07/25 05:14:21;;;;;;;7.90;6.85;;;20.50;99.90;;;;;;5138482;27;20524;-82
2022/07/25 05:16:46;;;;;;;9.25;6.38;;;20.60;99.90;;;;;;5157715;27;20443;-82
2022/07/25 05:19:12;;;;;;;10.02;7.13;;;20.60;99.90;;;;;;5156071;27;20047;-82
2022/07/25 05:21:38;;;;;;;8.48;7.43;;;20.60;99.90;;;;;;5158070;27;20098;-82
2022/07/25 05:24:04;;;;;;;7.22;6.53;;;20.60;99.90;;;;;;5158019;27;20039;-82
2022/07/25 05:26:30;;;;;;;7.95;6.50;;;20.60;99.90;;;;;;5156183;27;20099;-81
2022/07/25 05:28:55;;;;;;;11.57;7.10;;;20.60;99.90;;;;;;5157985;27;20486;-82
2022/07/25 05:31:21;;;;;;;7.90;7.10;;;20.60;99.90;;;;;;5138340;27;20129;-81
2022/07/25 05:33:47;;;;;;;12.00;8.45;;;20.70;99.90;;;;;;5156877;27;20076;-82
2022/07/25 05:36:13;;;;;;;8.80;7.10;;;20.70;99.90;;;;;;5138400;27;20047;-82
2022/07/25 05:38:39;;;;;;;9.57;8.07;;;20.70;99.90;;;;;;5157375;27;20045;-81
2022/07/25 05:41:05;;;;;;;11.73;8.00;;;20.70;99.90;;;;;;5155463;27;20046;-82
2022/07/25 05:43:30;;;;;;;10.10;7.50;;;20.70;99.90;;;;;;5157699;27;20437;-82
2022/07/25 05:46:04;;;;;;;13.52;8.35;;;20.70;99.90;;;;;;5137778;27;20043;-82
2022/07/25 05:48:30;;;;;;;10.25;8.13;;;20.80;99.90;;;;;;5138169;27;20413;-81
2022/07/25 05:50:58;;;;;;;10.50;7.88;;;20.80;99.90;;;;;;5137524;27;20049;-81
2022/07/25 05:53:24;;;;;;;12.60;8.43;;;20.80;99.90;;;;;;5157506;27;20050;-82
2022/07/25 05:55:50;;;;;;;8.70;7.72;;;20.90;99.90;;;;;;5155679;27;20035;-81
2022/07/25 05:58:16;;;;;;;12.48;8.32;;;20.90;99.90;;;;;;5137751;27;20453;-82
2022/07/25 06:00:41;;;;;;;11.73;8.65;;;20.90;99.90;;;;;;5138682;27;20051;-81
2022/07/25 06:03:07;;;;;;;10.90;8.45;;;20.90;99.90;;;;;;5136795;27;20047;-82
2022/07/25 06:05:33;;;;;;;10.43;8.85;;;20.90;99.90;;;;;;5157093;27;20034;-82
2022/07/25 06:07:59;;;;;;;9.07;8.18;;;21.00;99.90;;;;;;5137045;27;20047;-81
2022/07/25 06:10:24;;;;;;;11.23;8.60;;;21.00;99.90;;;;;;5144910;27;20053;-81
2022/07/25 06:12:50;;;;;;;12.95;8.63;;;21.10;99.90;;;;;;5117861;27;20497;-82
2022/07/25 06:15:16;;;;;;;10.90;8.63;;;21.10;99.90;;;;;;5138072;27;20477;-82
2022/07/25 06:17:42;;;;;;;9.98;7.95;;;21.10;99.90;;;;;;5135557;27;20628;-81
2022/07/25 06:20:08;;;;;;;12.48;8.98;;;21.10;99.90;;;;;;5149570;27;20039;-81
2022/07/25 06:22:34;;;;;;;11.00;8.85;;;21.20;99.90;;;;;;5141145;27;20050;-79
2022/07/25 06:25:03;;;;;;;10.45;8.85;;;21.20;99.90;;;;;;5142614;27;20027;-79
2022/07/25 06:27:29;;;;;;;10.32;8.98;;;21.20;99.90;;;;;;5152173;27;20043;-79
2022/07/25 06:29:56;;;;;;;12.93;9.32;;;21.30;99.90;;;;;;5135274;27;20136;-79
2022/07/25 06:32:21;;;;;;;11.52;8.45;;;21.30;99.90;;;;;;5135987;27;20397;-79
2022/07/25 06:34:50;;;;;;;12.45;9.85;;;21.30;99.90;;;;;;5117453;27;20057;-79
2022/07/25 06:37:16;;;;;;;8.50;7.65;;;21.40;99.90;;;;;;5134817;27;20462;-79
2022/07/25 06:39:42;;;;;;;10.45;9.30;;;21.30;99.90;;;;;;5146993;27;20126;-79
2022/07/25 06:42:07;;;;;;;11.30;8.48;;;21.40;99.90;;;;;;5139748;27;20039;-80
2022/07/25 06:44:34;;;;;;;15.50;9.55;;;21.40;99.90;;;;;;5134875;27;20035;-80
2022/07/25 06:47:00;;;;;;;11.02;8.63;;;21.40;99.90;;;;;;5125996;27;20569;-80
2022/07/25 06:49:26;;;;;;;11.35;8.57;;;21.40;99.90;;;;;;5156337;27;20035;-80
2022/07/25 06:51:52;;;;;;;13.68;9.20;;;21.50;99.90;;;;;;5136979;27;20064;-80
2022/07/25 06:54:18;;;;;;;10.10;8.00;;;21.60;99.90;;;;;;5141250;27;20038;-80
2022/07/25 06:56:44;;;;;;;13.82;8.57;;;21.70;99.90;;;;;;5151494;27;20041;-80
2022/07/25 06:59:10;;;;;;;9.35;8.38;;;21.80;99.90;;;;;;5153299;27;20509;-80
2022/07/25 07:01:36;;;;;;;11.88;8.25;;;21.80;99.90;;;;;;5156070;27;20042;-79
2022/07/25 07:04:03;;;;;;;12.65;9.25;;;21.90;99.90;;;;;;5126442;27;20087;-80
2022/07/25 07:06:29;;;;;;;11.90;8.95;;;21.90;99.90;;;;;;5150173;27;20409;-79
2022/07/25 07:08:55;;;;;;;9.13;8.05;;;21.90;99.90;;;;;;5124954;27;20050;-80
2022/07/25 07:11:21;;;;;;;12.90;8.77;;;22.00;99.90;;;;;;5154389;27;20046;-80
2022/07/25 07:13:46;;;;;;;10.85;8.05;;;22.00;99.90;;;;;;5135561;27;20397;-81
2022/07/25 07:16:12;;;;;;;9.10;8.20;;;22.00;99.90;;;;;;5144227;27;20126;-81
2022/07/25 07:18:38;;;;;;;10.60;8.82;;;22.10;99.90;;;;;;5131184;27;20053;-81
2022/07/25 07:21:04;;;;;;;12.02;8.52;;;22.20;99.90;;;;;;5155003;27;20152;-81
2022/07/25 07:23:31;;;;;;;14.13;8.40;;;22.40;99.90;;;;;;5134705;27;20042;-82
2022/07/25 07:25:57;;;;;;;11.75;7.97;;;22.60;99.90;;;;;;5147519;27;20549;-80
2022/07/25 07:28:23;;;;;;;9.38;8.38;;;22.70;99.90;;;;;;5135014;27;20444;-81
2022/07/25 07:30:49;;;;;;;10.88;7.78;;;22.80;99.90;;;;;;5142016;27;20074;-81
2022/07/25 07:33:15;;;;;;;8.52;7.68;;;22.80;99.90;;;;;;5123977;27;20050;-81
2022/07/25 07:35:43;;;;;;;14.10;7.85;;;22.80;99.90;;;;;;5154514;27;20051;-82
2022/07/25 07:38:08;;;;;;;8.00;6.97;;;22.80;99.90;;;;;;5154458;27;20039;-82
2022/07/25 07:40:34;;;;;;;11.50;7.10;;;22.90;99.90;;;;;;5133728;27;20045;-79
2022/07/25 07:43:02;;;;;;;9.57;6.57;;;23.10;99.90;;;;;;5121936;27;20042;-80
2022/07/25 07:45:29;;;;;;;6.63;5.78;;;23.30;99.90;;;;;;5122242;27;20120;-81
2022/07/25 07:47:56;;;;;;;7.68;5.45;;;23.50;99.90;;;;;;5136515;27;20050;-80
2022/07/25 07:50:24;;;;;;;4.57;3.88;;;23.60;99.90;;;;;;5151042;27;20042;-80
2022/07/25 07:52:51;;;;;;;4.95;3.70;;;23.60;99.90;;;;;;5144496;27;20490;-80
2022/07/25 07:58:02;;;;;;;7.78;2.50;;;23.60;99.90;;;;;;5153818;27;20054;-81
2022/07/25 08:00:29;;;;;;;2.90;2.28;;;23.50;99.90;;;;;;5137149;27;20089;-80
2022/07/25 08:02:57;;;;;;;2.28;2.05;;;23.50;99.90;;;;;;5132402;27;20073;-81
2022/07/25 08:05:29;;;;;;;3.13;2.15;;;23.50;99.90;;;;;;5141239;27;20038;-80
2022/07/25 08:07:54;;;;;;;3.95;2.17;;;23.50;99.90;;;;;;5153241;27;20038;-80
2022/07/25 08:10:25;;;;;;;4.32;2.40;;;23.40;99.90;;;;;;5141745;27;20133;-80
2022/07/25 08:12:51;;;;;;;2.20;2.00;;;23.40;99.90;;;;;;5116335;28;20195;-80
2022/07/25 08:15:19;;;;;;;3.50;2.03;;;23.40;99.90;;;;;;5133414;28;20039;-80
2022/07/25 08:17:45;;;;;;;3.05;2.00;;;23.30;99.90;;;;;;5133977;28;20059;-81
2022/07/25 08:20:12;;;;;;;4.13;2.00;;;23.20;99.90;;;;;;5134936;27;20055;-80
2022/07/25 08:22:44;;;;;;;2.08;1.65;;;23.00;99.90;;;;;;5117912;27;20051;-80
2022/07/25 08:25:13;;;;;;;1.92;1.50;;;22.90;99.90;;;;;;5146564;27;20050;-80
2022/07/25 08:27:39;;;;;;;2.88;1.50;;;22.80;99.90;;;;;;5141104;27;20147;-80
2022/07/25 08:30:07;;;;;;;4.60;1.60;;;22.70;99.90;;;;;;5152734;27;20031;-81
2022/07/25 08:32:33;;;;;;;2.28;1.98;;;22.60;99.90;;;;;;5150783;27;20043;-80
2022/07/25 08:35:00;;;;;;;4.15;1.50;;;22.60;99.90;;;;;;5143231;27;20047;-80
2022/07/25 08:37:27;;;;;;;2.80;1.40;;;22.60;99.90;;;;;;5153992;27;20413;-81
2022/07/25 08:39:53;;;;;;;3.88;1.52;;;22.50;99.90;;;;;;5153477;27;20121;-80
2022/07/25 08:42:19;;;;;;;4.55;1.65;;;22.50;99.90;;;;;;5140785;27;20130;-81
2022/07/25 08:44:57;;;;;;;3.17;1.58;;;22.50;99.90;;;;;;5137153;27;20491;-82
2022/07/25 08:47:23;;;;;;;4.03;1.50;;;22.40;99.90;;;;;;5150802;27;20122;-81
2022/07/25 08:49:49;;;;;;;1.40;1.30;;;22.40;99.90;;;;;;5138765;27;20087;-81
2022/07/25 08:52:15;;;;;;;2.60;1.42;;;22.40;99.90;;;;;;5137301;27;20043;-80
2022/07/25 08:54:41;;;;;;;7.70;1.50;;;22.40;99.90;;;;;;5144200;27;20035;-80
2022/07/25 08:57:07;;;;;;;2.20;1.33;;;22.50;99.90;;;;;;5129974;27;20118;-81
2022/07/25 08:59:33;;;;;;;3.30;1.75;;;22.50;99.90;;;;;;5130423;27;20121;-82
2022/07/25 09:02:01;;;;;;;4.22;1.65;;;22.50;99.90;;;;;;5157416;27;20434;-80
2022/07/25 09:04:28;;;;;;;3.30;1.90;;;22.50;99.90;;;;;;5155820;27;20050;-82
2022/07/25 09:06:54;;;;;;;2.20;1.60;;;22.30;99.90;;;;;;5139438;27;20405;-79
2022/07/25 09:09:31;;;;;;;4.80;1.80;;;22.30;99.90;;;;;;5155852;27;20063;-79
2022/07/25 09:11:57;;;;;;;2.35;1.70;;;22.20;99.90;;;;;;5137962;27;20508;-78
2022/07/25 09:14:23;;;;;;;2.38;1.52;;;22.10;99.90;;;;;;5157154;27;20081;-79
2022/07/25 09:16:49;;;;;;;4.38;2.05;;;22.00;99.90;;;;;;5157022;27;20086;-79
2022/07/25 09:19:20;;;;;;;4.07;1.80;;;22.10;99.90;;;;;;5156482;27;20083;-78
2022/07/25 09:21:58;;;;;;;4.65;1.60;;;22.10;99.90;;;;;;5143265;27;20122;-80
2022/07/25 09:24:24;;;;;;;4.65;2.08;;;22.20;99.90;;;;;;5136983;27;20470;-78
2022/07/25 09:26:53;;;;;;;2.67;1.83;;;22.20;99.90;;;;;;5147862;27;20042;-78
2022/07/25 09:29:23;;;;;;;2.88;1.50;;;22.30;99.90;;;;;;5137056;27;20046;-78
2022/07/25 09:31:50;;;;;;;3.58;1.90;;;22.40;99.90;;;;;;5135266;27;20034;-78
2022/07/25 09:34:40;;;;;;;3.10;1.67;;;22.50;99.90;;;;;;5129882;27;20035;-80
2022/07/25 09:37:09;;;;;;;5.50;1.70;;;22.60;99.90;;;;;;5125125;27;20043;-80
2022/07/25 09:39:39;;;;;;;2.72;1.58;;;22.60;99.90;;;;;;5155711;27;20053;-78
2022/07/25 09:42:31;;;;;;;4.32;1.63;;;22.60;99.90;;;;;;5152520;27;20046;-78
2022/07/25 09:45:03;;;;;;;3.60;1.70;;;22.60;99.90;;;;;;5143173;27;20085;-78
2022/07/25 09:47:31;;;;;;;3.20;1.75;;;22.60;99.90;;;;;;5126900;27;20085;-78
2022/07/25 09:49:57;;;;;;;3.33;1.77;;;22.50;99.90;;;;;;5120372;27;20054;-78
2022/07/25 09:52:23;;;;;;;3.20;1.70;;;22.50;99.90;;;;;;5154988;27;20066;-78
2022/07/25 09:54:49;;;;;;;3.72;1.63;;;22.40;99.90;;;;;;5155429;27;20070;-78
2022/07/25 09:57:15;;;;;;;4.38;1.65;;;22.40;99.90;;;;;;5138653;27;20129;-79
2022/07/25 09:59:41;;;;;;;3.55;1.70;;;22.40;99.90;;;;;;5137398;27;20051;-78
2022/07/25 10:02:07;;;;;;;6.25;1.50;;;22.50;99.90;;;;;;5156633;27;20042;-79
2022/07/25 10:05:04;;;;;;;4.40;1.50;;;22.50;99.90;;;;;;5156093;27;20393;-79
2022/07/25 10:07:35;;;;;;;3.75;1.60;;;22.60;99.90;;;;;;5116748;27;20107;-79
2022/07/25 10:10:01;;;;;;;3.15;1.45;;;22.50;99.90;;;;;;5148734;27;20074;-80
2022/07/25 10:12:26;;;;;;;4.97;2.03;;;22.50;99.90;;;;;;5156110;27;20138;-79
2022/07/25 10:15:13;;;;;;;4.05;1.75;;;22.40;99.90;;;;;;5153232;27;20494;-78
2022/07/25 10:17:39;;;;;;;7.57;2.20;;;22.40;99.90;;;;;;5135858;27;20130;-78
2022/07/25 10:20:09;;;;;;;6.50;1.60;;;22.30;99.90;;;;;;5152967;27;20448;-79
2022/07/25 10:22:44;;;;;;;6.65;2.35;;;22.20;99.90;;;;;;5156021;27;20090;-78
2022/07/25 10:25:18;;;;;;;5.28;1.92;;;22.10;99.90;;;;;;5155753;27;20035;-78
2022/07/25 10:27:49;;;;;;;4.00;2.05;;;22.10;99.90;;;;;;5156592;27;20129;-78
2022/07/25 10:30:19;;;;;;;2.22;1.55;;;22.10;99.90;;;;;;5154606;27;20135;-78
2022/07/25 10:32:55;;;;;;;6.60;2.22;;;22.10;99.90;;;;;;5156390;27;20512;-77
2022/07/25 10:35:21;;;;;;;8.55;2.35;;;22.10;99.90;;;;;;5155477;27;20043;-77
2022/07/25 10:37:50;;;;;;;4.97;1.73;;;22.20;99.90;;;;;;5135820;27;20140;-78
2022/07/25 10:40:26;;;;;;;12.60;2.20;;;22.30;99.90;;;;;;5156436;27;20046;-78
2022/07/25 10:43:16;;;;;;;7.05;2.78;;;22.50;99.90;;;;;;5135813;27;20505;-77
2022/07/25 10:45:51;;;;;;;3.92;2.30;;;22.60;99.90;;;;;;5155010;27;20051;-77
2022/07/25 10:48:31;;;;;;;8.13;2.00;;;22.80;99.90;;;;;;5154957;27;20117;-77
2022/07/25 10:51:03;;;;;;;7.97;2.40;;;22.90;99.90;;;;;;5155150;27;20508;-78
2022/07/25 10:53:33;;;;;;;7.25;1.90;;;23.00;99.90;;;;;;5154850;27;20117;-78
2022/07/25 10:56:10;;;;;;;4.50;1.73;;;23.00;99.90;;;;;;5137691;27;20038;-79
2022/07/25 10:58:53;;;;;;;5.82;1.90;;;22.90;99.90;;;;;;5154227;27;20113;-80
2022/07/25 11:01:35;;;;;;;8.05;2.20;;;22.80;99.90;;;;;;5155863;27;20446;-79
2022/07/25 11:04:05;;;;;;;10.52;2.20;;;22.70;99.90;;;;;;5135453;27;20090;-78
2022/07/25 11:06:41;;;;;;;7.32;1.85;;;22.70;99.90;;;;;;5137064;27;20069;-78
2022/07/25 11:09:26;;;;;;;6.88;2.65;;;22.80;99.90;;;;;;5154557;27;20077;-78
2022/07/25 11:11:54;;;;;;;9.48;2.20;;;22.90;99.90;;;;;;5154974;27;20074;-78
2022/07/25 11:14:32;;;;;;;7.10;2.00;;;23.10;99.90;;;;;;5147261;27;20071;-79
2022/07/25 11:17:19;;;;;;;8.18;2.13;;;23.10;99.90;;;;;;5152604;27;20055;-78
2022/07/25 11:19:57;;;;;;;6.38;2.10;;;23.30;99.90;;;;;;5153600;27;20050;-79
2022/07/25 11:22:25;;;;;;;6.70;2.08;;;23.40;99.90;;;;;;5155502;27;20045;-79
2022/07/25 11:24:51;;;;;;;6.07;1.55;;;23.30;99.90;;;;;;5153799;27;20242;-80
2022/07/25 11:27:23;;;;;;;7.78;2.30;;;23.20;99.90;;;;;;5137235;27;20478;-80
2022/07/25 11:29:50;;;;;;;8.00;2.30;;;22.80;99.90;;;;;;5124485;27;20118;-80
2022/07/25 11:32:16;;;;;;;7.82;1.77;;;22.60;99.90;;;;;;5115703;27;20051;-79
2022/07/25 11:34:53;;;;;;;9.15;2.58;;;22.50;99.90;;;;;;5140750;27;20485;-80
2022/07/25 11:37:19;;;;;;;8.60;2.00;;;22.40;99.90;;;;;;5136153;27;20574;-79
2022/07/25 11:39:46;;;;;;;8.73;2.10;;;22.50;99.90;;;;;;5136901;27;20482;-78
2022/07/25 11:42:15;;;;;;;9.73;3.28;;;22.70;99.90;;;;;;5134638;27;20039;-79
2022/07/25 11:44:52;;;;;;;8.40;1.85;;;22.80;99.90;;;;;;5144408;27;20077;-78
2022/07/25 11:47:27;;;;;;;7.90;1.58;;;23.00;99.90;;;;;;5154479;27;20392;-81
2022/07/25 11:49:54;;;;;;;5.63;1.88;;;23.10;99.90;;;;;;5146368;27;20035;-79
2022/07/25 11:52:28;;;;;;;7.95;1.80;;;23.10;99.90;;;;;;5116445;28;20065;-80
2022/07/25 11:55:02;;;;;;;;;;;23.10;99.90;;;;;;5142280;27;20053;-81
2022/07/25 11:57:33;;;;;;;5.80;2.20;;;22.90;99.90;;;;;;5155216;27;19965;-79
2022/07/25 12:00:01;;;;;;;10.10;2.08;;;22.80;99.90;;;;;;5128742;28;20047;-78
2022/07/25 12:02:29;;;;;;;9.55;2.42;;;22.80;99.90;;;;;;5136927;27;20053;-80
2022/07/25 12:04:57;;;;;;;6.80;2.00;;;22.80;99.90;;;;;;5155361;27;20095;-81
2022/07/25 12:07:43;;;;;;;10.43;2.28;;;22.80;99.90;;;;;;5141524;27;20043;-81
2022/07/25 12:10:30;;;;;;;8.23;1.92;;;22.80;99.90;;;;;;5146472;27;20046;-80
2022/07/25 12:12:57;;;;;;;6.88;2.20;;;22.70;99.90;;;;;;5154584;27;20039;-82
2022/07/25 12:15:28;;;;;;;4.90;1.60;;;22.70;99.90;;;;;;5137026;27;20042;-81
2022/07/25 12:17:55;;;;;;;5.80;1.83;;;22.60;99.90;;;;;;5159396;27;20054;-80
2022/07/25 12:20:23;;;;;;;8.77;2.45;;;22.60;99.90;;;;;;5152156;27;20047;-81
2022/07/25 12:22:55;;;;;;;5.78;2.00;;;22.70;99.90;;;;;;5149854;27;20067;-81
2022/07/25 12:25:21;;;;;;;12.88;2.03;;;22.70;99.90;;;;;;5119968;27;20129;-83
2022/07/25 12:27:49;;;;;;;11.73;2.00;;;22.70;99.90;;;;;;5140942;27;20486;-82
2022/07/25 12:30:15;;;;;;;8.88;2.08;;;22.70;99.90;;;;;;5137296;27;20035;-81
2022/07/25 12:32:41;;;;;;;6.75;1.70;;;22.60;99.90;;;;;;5124991;27;20390;-80
2022/07/25 12:35:10;;;;;;;16.67;2.38;;;22.60;99.90;;;;;;5158435;27;20474;-79
2022/07/25 12:37:36;;;;;;;6.35;2.58;;;22.60;99.90;;;;;;5156428;27;20030;-80
2022/07/25 12:40:03;;;;;;;6.43;1.88;;;22.70;99.90;;;;;;5119980;27;20083;-82
2022/07/25 12:42:29;;;;;;;7.03;2.03;;;22.80;99.90;;;;;;5121110;27;20050;-80
2022/07/25 12:44:55;;;;;;;10.48;2.22;;;22.90;99.90;;;;;;5158968;27;20413;-80
2022/07/25 12:47:25;;;;;;;7.80;1.92;;;22.90;99.90;;;;;;5157701;27;20050;-80
2022/07/25 12:49:51;;;;;;;6.40;1.90;;;22.80;99.90;;;;;;5120260;27;20051;-80